WEATHER DATA

YESTERDAY
Time Temp. Dewp. Hum. Wind dir Wind speed Wind gust Bar.
00:01 4.7 2.4 85 270 0.3 0.6 1044
00:12 4.7 2.2 84 45 0.3 1.1 1043.9
00:22 5 2.5 84 90 0.3 0.8 1044
00:32 4.9 2.3 83 59 0.3 0.8 1044.2
00:53 4.8 2.2 83 0 0.6 1044.4
01:02 4.9 2.3 83 90 0.3 0.8 1044.2
01:12 4.9 2.3 83 53 0.3 0.8 1044.2
01:33 5 2.2 82 45 0.3 0.6 1044.2
01:43 5 2.4 83 37 0.3 0.8 1044
01:53 5.1 2.3 82 52 0.3 0.8 1043.9
02:03 5.1 2.3 82 52 0.3 0.6 1043.8
02:13 5.1 2.3 82 55 0.6 1.1 1043.9
02:23 5.3 2.5 82 26 0.3 0.8 1043.8
02:44 5.2 2.2 81 90 0.3 0.8 1043.7
02:54 5.3 2.3 81 57 0.3 0.8 1043.9
03:03 5.4 2.2 80 26 0.3 1.1 1044.1
03:14 5.2 2.2 81 156 0.3 1.1 1043.9
03:24 5.1 2.1 81 45 0.3 0.6 1043.5
03:34 5 2 81 45 0.3 0.8 1043.5
03:44 5.1 2.1 81 90 0.3 1.4 1043.6
03:55 5.4 2.4 81 52 0.6 1.1 1043.6
04:05 5.3 2.1 80 60 0.3 0.8 1043.5
04:14 5.3 2.3 81 90 0.3 0.8 1043.6
04:25 5.3 2.1 80 45 0.3 1.1 1043.6
04:34 5.3 2.1 80 45 0.3 0.8 1043.6
04:44 5.3 2.1 80 135 0.3 0.8 1043.6
04:54 5.2 2 80 90 0.3 0.8 1043.5
05:19 5.3 2.1 80 45 0.6 1.1 1043.5
05:29 5.3 2.1 80 90 0.3 0.8 1043.6
05:40 5.3 2 79 49 0.3 1.4 1043.5
05:50 5.3 2 79 90 0.3 1.1 1043.4
05:57 5.2 1.9 79 30 0.3 1.1 1043.2
06:07 5.2 1.9 79 29 0.3 1.1 1043.2
06:17 5.2 1.7 78 142 0.3 0.8 1043.1
06:28 5.2 1.9 79 30 0.3 1.1 1043.2
06:37 5.3 2 79 90 0.3 1.4 1043.5
06:47 5.2 1.7 78 90 0.3 0.8 1043.4
06:57 5.3 1.8 78 45 0.3 0.8 1043.3
07:08 5 1.5 78 45 0.3 0.8 1043.2
07:17 4.9 1.4 78 90 0.3 0.8 1043.2
07:27 4.8 1.5 79 39 0.3 1.1 1043.3
07:38 4.9 1.6 79 90 0.3 1.1 1043.3
07:48 4.8 1.5 79 56 0.3 1.1 1043.2
07:53 4.8 1.5 79 53 0.3 1.1 1043.2
08:03 4.9 1.4 78 38 0.3 0.8 1043.1
08:14 5 1.3 77 53 0.3 1.1 1043.2
08:24 4.9 1.2 77 135 0.3 0.8 1043.2
08:33 4.8 1.3 78 60 0.3 0.8 1043.1
08:43 5.1 1.4 77 45 0.3 1.1 1043.3
08:54 4.9 1.2 77 56 0.3 0.8 1043.1
09:06 4.8 1.3 78 50 0.3 0.8 1043.1
09:17 4.8 1.3 78 45 0.3 0.6 1043.2
09:27 4.7 1.2 78 135 0.3 0.6 1043.3
09:36 4.7 1.4 79 129 0.3 0.8 1043.3
09:47 4.8 1.3 78 341 0.3 1.7 1043.2
09:54 4.7 1.4 79 39 0.3 1.1 1043.3
10:04 4.6 1.5 80 90 0.3 0.6 1043.5
10:13 4.6 1.3 79 90 0.3 0.6 1043.4
10:23 4.5 1.4 80 26 0.3 0.8 1043.6
10:34 4.4 1.3 80 53 0.3 0.6 1043.7
10:44 4.3 1.3 81 0 0.6 1043.7
10:58 4.2 1.1 80 90 0.3 0.6 1043.8
11:08 4.1 1.1 81 56 0.3 0.6 1043.6
11:17 4 1.2 82 0 0.6 1043.5
11:28 4 1.2 82 45 0.3 0.6 1043.8
11:38 3.9 1.3 83 0 0.6 1043.8
11:50 3.9 1.4 84 45 0.3 0.6 1043.7
12:00 3.9 1.3 83 15 0.3 0.8 1043.7
12:09 3.8 1.2 83 194 0.3 0.6 1043.4
12:20 3.8 1.5 85 159 0.3 0.8 1043.4
12:30 3.8 1.3 84 0 0.6 1043.4
12:40 3.7 1.3 84 32 0.3 0.6 1043.4
12:50 3.7 1.4 85 176 0.3 0.6 1043.3
13:01 4.1 2.1 87 198 0.6 1.4 1043.3
13:11 4.6 2.5 86 189 0.8 1.4 1043.2
13:19 4.8 2.5 85 216 0.6 1.4 1043.3
13:29 5 2.5 84 217 0.6 1.1 1043
13:39 5.3 2.8 84 225 0.6 1.1 1042.8
13:49 5.3 2.7 83 206 0.6 0.8 1042.6
14:00 5.1 2.3 82 214 0.3 0.8 1042.8
14:10 4.8 2 82 0 0.6 1042.6
14:20 4.5 1.9 83 0 0.3 1042.7
14:25 4.4 1.8 83 0 0.3 1042.7
14:35 4.1 1.5 83 168 0.3 0.6 1042.8
14:46 3.9 1.4 84 0 0.3 1042.9
14:56 3.7 1.4 85 201 0.3 1.4 1042.9
15:05 3.6 1.5 86 0 0.6 1042.9
15:16 3.5 1.5 87 146 0.3 0.6 1042.9
15:26 3.4 1.4 87 0 0.3 1043.1
15:36 3.3 1.3 87 0 0.6 1043
15:46 3.3 1.3 87 0 0.6 1043.5
15:57 3.4 1.4 87 308 0.3 0.8 1043.5
16:06 3.4 1.4 87 90 0.3 0.8 1043.5
16:16 3.3 1.3 87 234 0.3 0.6 1043.5
16:27 3.4 1.4 87 270 0.3 0.8 1043.5
16:37 3.4 1.4 87 0 0.6 1043.5
16:47 3.4 1.4 87 270 0.3 0.8 1043.6
16:57 3.4 1.4 87 324 0.3 1.1 1043.8
17:08 3.4 1.4 87 135 0.3 0.8 1043.8
17:18 3.4 1.3 86 5 0.3 0.6 1044
17:28 3.4 1.4 87 315 0.3 1.1 1044.1
17:37 3.4 1.4 87 315 0.3 1.1 1044.2
17:48 3.4 1.4 87 315 0.6 1.4 1044.3
18:01 3.3 1.3 87 0 0.3 1044.3
18:12 3.3 1.3 87 0 0.6 1044.3
18:22 3.3 1.3 87 203 0.3 0.6 1044.4
18:32 3.3 1.3 87 161 0.3 0.6 1044.4
18:42 3.3 1.3 87 0 0.6 1044.4
18:53 3.3 1.2 86 33 0.3 1.1 1044.5
19:02 3.3 1.3 87 201 0.3 0.8 1044.5
19:12 3.2 1.2 87 188 0.6 1.4 1044.5
19:23 3.2 1.2 87 188 0.3 1.1 1044.5
19:33 3.1 1.3 88 185 0.3 0.6 1044.4
19:43 3.1 1.3 88 225 0.3 0.6 1044.5
19:53 3.1 1.3 88 206 0.3 0.6 1044.5
20:03 3.1 1.3 88 270 0.3 0.6 1044.5
20:13 3.1 1.3 88 184 0.3 0.8 1044.4
20:23 3 1.2 88 198 0.3 0.6 1044.4
20:34 3 1.2 88 45 0.3 0.6 1044.4
20:44 3 1.2 88 32 0.3 0.6 1044.5
20:54 3 1.2 88 45 0.3 0.6 1044.3
21:04 2.9 1.1 88 186 0.3 0.6 1044.2
21:14 3 1.2 88 45 0.3 0.8 1044.2
21:24 2.9 1.1 88 14 0.3 0.6 1044.2
21:34 3 1.2 88 198 0.3 0.6 1044.1
21:44 2.9 1.1 88 135 0.3 0.8 1043.9
21:55 2.9 1.1 88 186 0.3 0.8 1044
22:05 2.8 1 88 45 0.3 0.8 1043.8
22:14 2.7 0.9 88 45 0.3 0.6 1043.9
22:25 2.7 1.1 89 45 0.3 0.6 1043.9
22:35 2.7 1.1 89 0 0.6 1043.8
22:45 2.6 1 89 198 0.3 0.8 1043.9
22:55 2.6 1 89 45 0.3 0.8 1043.9
23:06 2.6 1 89 356 0.3 0.8 1043.7
23:15 2.6 0.8 88 27 0.3 1.1 1043.8
23:29 2.5 0.7 88 28 0.3 0.6 1043.7
23:39 2.5 0.7 88 30 0.3 0.6 1043.7
23:48 2.5 0.7 88 45 0.3 0.6 1043.7

DAY STATISTIC

2018-11-18
TEMPERATURE
AVERAGE
4.2
HIGH
5.4
03:03
LOW
2.5
23:29
PRESSURE
AVERAGE
1043.6
HIGH
1044.5
18:53
LOW
1042.6
13:49
DEWPOINT
AVERAGE
1.6
HIGH
2.8
13:39
LOW
0.7
23:29
HUMIDITY
AVERAGE
84
HIGH
89
22:25
LOW
77
08:14
WIND SPEED
AVERAGE
0.3
HIGH
0.8
13:11
WIND GUST
AVERAGE
0.8
HIGH
1.7
09:47
WIND DIRECTION
PREVAILING
NE
39.1%
N
3.6
NE
39.1
E
11.6
SE
6.5
S
13.8
SW
5.8
W
2.9
NW
3.6
TEMPERATURE (°C)
LOW
2.5
HIGH
5.4
AVERAGE
4.2
PRESSURE (hpa)
LOW
1042.6
HIGH
1044.5
AVERAGE
1043.6
DEVICE